TPOK1: Kansas River, State-Line, KS

                                SHEF ID:       TPOK1     MARAIS DES CYGNES R NR KS-MO ST
STATION TYPE:

STAGE STAGE(2) RIV-FLOW BAT-LOAD
ft ft cfs volt
Ccp-Rev Ccp-Rev Ccp-Rev Ccp-Rev
(America/Chicago)
07/26 00:00 5.60 5.54 753 12.50
07/26 01:00 5.60 5.52 753 12.48
07/26 02:00 5.59 5.49 747 12.47
07/26 03:00 5.56 5.49 733 12.44
07/26 04:00 5.54 5.47 723 12.44
07/26 05:00 5.53 5.44 718 12.42
07/26 06:00 5.51 5.42 708 12.40
07/26 07:00 5.48 5.41 693 12.38
07/26 08:00 5.46 5.38 684 12.40
07/26 09:00 5.46 5.37 684 12.71
07/26 10:00 5.44 5.33 674 13.07
07/26 11:00 5.40 5.31 655 12.90
07/26 12:00 5.37 5.31 641 13.21
07/26 13:00 5.38 5.27 646 13.15
07/26 14:00 5.34 5.27 628 13.12
07/26 15:00 5.33 5.25 623 12.94
07/26 16:00 5.29 5.23 605 12.90
07/26 17:00 5.30 5.22 610 12.84
07/26 18:00 5.26 5.18 592 12.69
07/26 19:00 5.25 5.15 587 12.63
07/26 20:00 5.24 5.13 583 12.60
07/26 21:00 5.20 5.12 565 12.58
07/26 22:00 5.19 5.10 561 12.53
07/26 23:00 5.17 5.07 552 12.50
Data processed at Mon 27Jul2026 04:52 GMT

NOTICE: If you are parsing this page

Please convert to using our Data API. Starting early 2026 we will be migrating to: https://water.usace.army.mil with modern pages rendered in JavaScript. When this migration completes you will no longer be able to scrape this page! CWMSDataAPI (CDA)

Timeseries IDs (TSIDs)

TSIDs used from left to right in the data table
MKSL.Stage.Inst.1Hour.0.Ccp-Rev
MKSL.Stage-Alt.Inst.1Hour.0.Ccp-Rev
MKSL.Flow.Inst.1Hour.0.Ccp-Rev
MKSL.Volt-Battery Load.Inst.1Hour.0.Ccp-Rev

                            

All information presented herein is the property of the government of the United States of America and may be revised or deleted at any time without prior notice. Dissemination of this information without the expressed written consent of the Public Affairs Office, Tulsa District U.S. Army Corps of Engineers is strictly prohibited. These data are gathered electronically and, as presented, have NOT undergone any form of quality control. These data are NOT guaranteed to be valid or correct.